Weather at High School Heliport

Public forecast

Using degrees Fahrenheit for public forecast. Weather courtesy of forecast.io.

Closest aviation weather report (METAR) to High School Heliport

Closest report is Norwood Memorial Airport, 12.0 nm (22.2 km) E. Retrieved 2020/10/23 09:53 UTC (1 hour ago):

KOWD 230953Z AUTO 00000KT 2 1/2SM BR OVC002 13/12 A3025 RMK AO2 SLP244 T01330122 PNO

Closest aviation forecast (TAF) to High School Heliport

Forecast is more than 6 hours old.

Closest forecast is Laurence G Hanscom Field, 17.3 nm (32.0 km) NNE. Retrieved 2020-10-23 00:40 UTC (10 hours ago):

TAF KBED 222338Z 2300/2324 08004KT P6SM OVC010 FM230900 00000KT 4SM BR OVC006 FM231300 11003KT P6SM BKN035